createdAt,value
2019-03-23T00:01:55.332Z,5.56
2019-03-23T00:04:25.498Z,5.74
2019-03-23T00:06:55.270Z,5.66
2019-03-23T00:09:24.967Z,5.62
2019-03-23T00:11:54.604Z,5.44
2019-03-23T00:14:24.265Z,5.55
2019-03-23T00:16:53.922Z,5.58
2019-03-23T00:19:23.599Z,5.52
2019-03-23T00:21:53.272Z,5.61
2019-03-23T00:24:22.943Z,5.58
2019-03-23T00:26:52.576Z,5.44
2019-03-23T00:29:22.268Z,5.52
2019-03-23T00:31:51.900Z,5.38
2019-03-23T00:34:21.594Z,5.25
2019-03-23T00:36:51.218Z,5.23
2019-03-23T00:39:20.872Z,5.28
2019-03-23T00:41:50.513Z,5.21
2019-03-23T00:44:20.193Z,5.15
2019-03-23T00:46:49.880Z,5.20
2019-03-23T00:49:19.606Z,5.18
2019-03-23T00:51:49.589Z,5.14
2019-03-23T00:54:19.368Z,5.32
2019-03-23T00:56:49.170Z,5.21
2019-03-23T00:59:18.840Z,5.12
2019-03-23T01:01:48.544Z,5.11
2019-03-23T01:04:18.204Z,5.03
2019-03-23T01:06:52.289Z,5.04
2019-03-23T01:09:19.657Z,5.29
2019-03-23T01:11:49.523Z,5.27
2019-03-23T01:14:19.189Z,5.22
2019-03-23T01:16:48.833Z,5.36
2019-03-23T01:19:18.632Z,5.13
2019-03-23T01:21:48.273Z,5.03
2019-03-23T01:24:18.007Z,4.96
2019-03-23T01:26:47.642Z,4.99
2019-03-23T01:29:18.393Z,5.03
2019-03-23T01:31:48.031Z,4.99
2019-03-23T01:34:17.693Z,4.93
2019-03-23T01:36:47.322Z,4.92
2019-03-23T01:39:17.056Z,4.88
2019-03-23T01:41:46.684Z,4.68
2019-03-23T01:44:16.443Z,4.87
2019-03-23T01:46:46.074Z,4.71
2019-03-23T01:49:15.837Z,4.75
2019-03-23T01:51:45.471Z,4.82
2019-03-23T01:54:15.237Z,4.83
2019-03-23T01:56:44.973Z,4.73
2019-03-23T01:59:14.649Z,4.68
2019-03-23T02:01:44.292Z,4.58
2019-03-23T02:04:13.944Z,4.37
2019-03-23T02:06:43.674Z,4.47
2019-03-23T02:09:13.346Z,4.37
2019-03-23T02:11:42.992Z,4.41
2019-03-23T02:14:12.648Z,4.49
2019-03-23T02:16:42.332Z,4.39
2019-03-23T02:19:12.408Z,4.29
2019-03-23T02:21:42.049Z,4.23
2019-03-23T02:24:11.643Z,4.40
2019-03-23T02:26:41.350Z,4.31
2019-03-23T02:29:11.035Z,4.45
2019-03-23T02:31:40.724Z,4.46
2019-03-23T02:34:10.416Z,4.22
2019-03-23T02:36:40.056Z,4.39
2019-03-23T02:39:09.726Z,4.09
2019-03-23T02:41:39.446Z,4.26
2019-03-23T02:44:09.032Z,4.26
2019-03-23T02:46:38.923Z,4.19
2019-03-23T02:49:08.622Z,4.11
2019-03-23T02:51:39.848Z,4.13
2019-03-23T02:54:09.529Z,4.08
2019-03-23T02:56:39.153Z,4.08
2019-03-23T02:59:08.821Z,3.94
2019-03-23T03:01:38.624Z,3.91
2019-03-23T03:04:08.280Z,3.90
2019-03-23T03:06:37.929Z,3.85
2019-03-23T03:09:08.213Z,4.01
2019-03-23T03:11:37.859Z,4.32
2019-03-23T03:14:07.516Z,4.33
2019-03-23T03:16:37.152Z,4.16
2019-03-23T03:19:06.834Z,4.06
2019-03-23T03:21:36.531Z,3.81
2019-03-23T03:24:06.222Z,3.87
2019-03-23T03:26:35.966Z,3.79
2019-03-23T03:29:05.659Z,3.73
2019-03-23T03:31:35.491Z,3.75
2019-03-23T03:34:05.331Z,3.82
2019-03-23T03:36:34.969Z,3.87
2019-03-23T03:39:05.748Z,3.89
2019-03-23T03:41:35.386Z,3.92
2019-03-23T03:44:05.229Z,4.03
2019-03-23T03:46:34.874Z,3.77
2019-03-23T03:49:12.292Z,3.79
2019-03-23T03:51:35.926Z,3.79
2019-03-23T03:54:06.013Z,3.83
2019-03-23T03:56:35.821Z,3.73
2019-03-23T03:59:05.483Z,3.52
2019-03-23T04:01:35.141Z,3.44
2019-03-23T04:04:04.828Z,3.55
2019-03-23T04:06:34.884Z,3.55
2019-03-23T04:09:06.200Z,3.60
2019-03-23T04:11:35.903Z,3.90
2019-03-23T04:14:05.564Z,3.56
2019-03-23T04:16:35.245Z,3.45
2019-03-23T04:19:05.051Z,3.40
2019-03-23T04:21:34.797Z,3.36
2019-03-23T04:24:04.503Z,3.63
2019-03-23T04:26:34.188Z,3.54
2019-03-23T04:29:04.278Z,3.50
2019-03-23T04:31:33.919Z,3.33
2019-03-23T04:34:03.590Z,3.41
2019-03-23T04:36:33.238Z,3.31
2019-03-23T04:39:02.975Z,3.17
2019-03-23T04:41:32.621Z,3.49
2019-03-23T04:44:02.394Z,3.41
2019-03-23T04:46:32.085Z,3.32
2019-03-23T04:49:01.752Z,3.33
2019-03-23T04:51:31.490Z,3.66
2019-03-23T04:54:01.425Z,3.60
2019-03-23T04:56:31.103Z,3.47
2019-03-23T04:59:00.881Z,3.41
2019-03-23T05:01:30.552Z,3.26
2019-03-23T05:04:00.242Z,3.29
2019-03-23T05:06:29.879Z,3.36
2019-03-23T05:08:59.595Z,3.43
2019-03-23T05:11:29.277Z,3.37
2019-03-23T05:13:58.941Z,3.55
2019-03-23T05:16:28.593Z,3.30
2019-03-23T05:18:58.318Z,3.33
2019-03-23T05:21:28.031Z,3.21
2019-03-23T05:23:57.762Z,3.17
2019-03-23T05:26:27.386Z,3.45
2019-03-23T05:28:57.058Z,3.45
2019-03-23T05:31:26.701Z,3.51
2019-03-23T05:33:56.485Z,3.35
2019-03-23T05:36:26.234Z,3.43
2019-03-23T05:38:55.865Z,3.40
2019-03-23T05:41:25.537Z,3.38
2019-03-23T05:43:55.218Z,3.41
2019-03-23T05:46:24.857Z,3.56
2019-03-23T05:48:54.534Z,3.36
2019-03-23T05:51:24.201Z,3.56
2019-03-23T05:53:53.915Z,3.59
2019-03-23T05:56:23.956Z,3.62
2019-03-23T05:58:53.738Z,3.80
2019-03-23T06:01:23.424Z,3.91
2019-03-23T06:03:53.067Z,3.80
2019-03-23T06:06:22.783Z,3.89
2019-03-23T06:08:55.391Z,3.87
2019-03-23T06:11:23.842Z,4.01
2019-03-23T06:13:53.585Z,4.09
2019-03-23T06:16:23.821Z,4.11
2019-03-23T06:18:53.584Z,4.24
2019-03-23T06:21:23.331Z,4.25
2019-03-23T06:23:52.989Z,4.26
2019-03-23T06:26:22.672Z,4.41
2019-03-23T06:28:52.373Z,4.43
2019-03-23T06:31:22.053Z,5.26
2019-03-23T06:33:51.884Z,5.19
2019-03-23T06:36:21.599Z,5.63
2019-03-23T06:38:51.246Z,5.80
2019-03-23T06:41:21.225Z,6.28
2019-03-23T06:43:51.438Z,7.03
2019-03-23T06:46:21.162Z,7.41
2019-03-23T06:48:51.170Z,8.08
2019-03-23T06:51:22.652Z,8.47
2019-03-23T06:53:52.538Z,8.79
2019-03-23T06:56:22.274Z,8.97
2019-03-23T06:58:51.947Z,8.77
2019-03-23T07:01:21.806Z,8.77
2019-03-23T07:03:51.443Z,8.70
2019-03-23T07:06:21.320Z,8.53
2019-03-23T07:08:51.050Z,8.61
2019-03-23T07:11:21.121Z,8.49
2019-03-23T07:13:50.808Z,8.62
2019-03-23T07:16:20.731Z,9.18
2019-03-23T07:18:50.433Z,9.30
2019-03-23T07:21:20.110Z,9.28
2019-03-23T07:23:54.943Z,9.45
2019-03-23T07:29:31.591Z,9.67
2019-03-23T07:32:05.733Z,9.67
2019-03-23T07:34:44.870Z,9.80
2019-03-23T07:37:13.276Z,9.82
2019-03-23T07:39:45.014Z,9.88
2019-03-23T07:42:15.035Z,9.82
2019-03-23T07:44:47.415Z,9.94
2019-03-23T07:47:20.222Z,10.02
2019-03-23T07:49:50.214Z,9.89
2019-03-23T07:52:19.886Z,9.96
2019-03-23T07:54:49.753Z,10.15
2019-03-23T07:57:19.498Z,9.93
2019-03-23T07:59:49.349Z,9.99
2019-03-23T08:02:19.424Z,10.17
2019-03-23T08:04:49.087Z,10.31
2019-03-23T08:07:18.756Z,10.31
2019-03-23T08:09:48.447Z,10.29
2019-03-23T08:12:18.088Z,10.56
2019-03-23T08:14:47.942Z,10.61
2019-03-23T08:17:17.663Z,10.65
2019-03-23T08:19:47.457Z,10.63
2019-03-23T08:22:17.220Z,10.88
2019-03-23T08:24:46.927Z,10.83
2019-03-23T08:27:16.603Z,10.94
2019-03-23T08:29:46.237Z,11.00
2019-03-23T08:32:15.895Z,11.10
2019-03-23T08:34:45.557Z,11.06
2019-03-23T08:37:15.223Z,11.21
2019-03-23T08:39:48.642Z,11.19
2019-03-23T08:42:16.341Z,11.21
2019-03-23T08:44:46.015Z,11.32
2019-03-23T08:47:15.668Z,11.52
2019-03-23T08:49:45.349Z,11.49
2019-03-23T08:52:15.015Z,11.65
2019-03-23T08:54:44.641Z,11.63
2019-03-23T08:57:14.732Z,11.74
2019-03-23T08:59:44.431Z,11.80
2019-03-23T09:02:14.131Z,11.71
2019-03-23T09:04:44.640Z,12.03
2019-03-23T09:07:14.312Z,11.87
2019-03-23T09:09:43.940Z,12.10
2019-03-23T09:12:13.868Z,12.05
2019-03-23T09:14:43.507Z,12.15
2019-03-23T09:17:13.202Z,11.99
2019-03-23T09:19:42.991Z,11.93
2019-03-23T09:22:12.701Z,11.91
2019-03-23T09:24:42.460Z,11.95
2019-03-23T09:27:12.708Z,11.82
2019-03-23T09:29:42.448Z,12.01
2019-03-23T09:32:12.128Z,12.02
2019-03-23T09:34:41.769Z,12.22
2019-03-23T09:37:11.620Z,12.39
2019-03-23T09:39:41.267Z,12.24
2019-03-23T09:42:11.026Z,12.44
2019-03-23T09:44:40.686Z,12.23
2019-03-23T09:47:10.384Z,12.23
2019-03-23T09:49:40.212Z,12.13
2019-03-23T09:52:10.012Z,12.26
2019-03-23T09:54:39.745Z,12.43
2019-03-23T09:57:09.404Z,12.57
2019-03-23T09:59:39.135Z,12.76
2019-03-23T10:02:09.058Z,12.63
2019-03-23T10:04:38.758Z,12.88
2019-03-23T10:07:08.426Z,12.81
2019-03-23T10:09:38.057Z,12.85
2019-03-23T10:12:07.719Z,12.74
2019-03-23T10:14:37.420Z,12.57
2019-03-23T10:17:07.202Z,12.67
2019-03-23T10:19:36.821Z,12.71
2019-03-23T10:22:06.496Z,12.61
2019-03-23T10:24:36.145Z,12.86
2019-03-23T10:27:05.837Z,13.03
2019-03-23T10:29:35.480Z,13.02
2019-03-23T10:32:05.204Z,13.13
2019-03-23T10:34:34.858Z,13.01
2019-03-23T10:37:04.539Z,13.29
2019-03-23T10:39:34.098Z,13.39
2019-03-23T10:42:03.789Z,13.23
2019-03-23T10:44:33.967Z,13.41
2019-03-23T10:47:03.774Z,13.43
2019-03-23T10:49:33.531Z,13.38
2019-03-23T10:52:03.204Z,13.46
2019-03-23T10:54:32.896Z,13.31
2019-03-23T10:57:02.590Z,13.21
2019-03-23T10:59:32.264Z,13.34
2019-03-23T11:02:01.935Z,13.23
2019-03-23T11:04:31.579Z,12.91
2019-03-23T11:07:01.257Z,13.01
2019-03-23T11:09:31.271Z,13.17
2019-03-23T11:12:01.044Z,13.47
2019-03-23T11:14:30.677Z,13.15
2019-03-23T11:17:00.349Z,13.02
2019-03-23T11:19:29.981Z,13.11
2019-03-23T11:21:59.678Z,13.16
2019-03-23T11:24:29.304Z,13.18
2019-03-23T11:26:58.978Z,12.85
2019-03-23T11:29:28.636Z,12.77
2019-03-23T11:31:58.305Z,12.73
2019-03-23T11:34:27.970Z,12.70
2019-03-23T11:36:57.733Z,12.39
2019-03-23T11:39:27.467Z,12.53
2019-03-23T11:41:57.206Z,12.39
2019-03-23T11:44:26.891Z,12.11
2019-03-23T11:46:56.566Z,12.26
2019-03-23T11:49:26.318Z,11.85
2019-03-23T11:51:56.059Z,11.89
2019-03-23T11:54:25.772Z,11.78
2019-03-23T11:56:55.679Z,11.37
2019-03-23T11:59:25.276Z,11.58
2019-03-23T12:01:54.996Z,11.59
2019-03-23T12:04:25.250Z,11.34
2019-03-23T12:06:55.648Z,11.43
2019-03-23T12:09:25.314Z,11.19
2019-03-23T12:11:54.986Z,10.76
2019-03-23T12:14:24.699Z,10.83
2019-03-23T12:16:54.442Z,10.82
2019-03-23T12:19:24.122Z,10.64
2019-03-23T12:21:53.991Z,10.71
2019-03-23T12:24:25.008Z,10.94
2019-03-23T12:26:54.767Z,10.92
2019-03-23T12:29:24.398Z,10.43
2019-03-23T12:31:54.073Z,10.30
2019-03-23T12:34:24.013Z,10.03
2019-03-23T12:36:53.796Z,9.84
2019-03-23T12:39:23.449Z,9.49
2019-03-23T12:41:53.217Z,9.79
2019-03-23T12:44:22.851Z,9.40
2019-03-23T12:46:53.056Z,9.30
2019-03-23T12:49:22.706Z,9.47
2019-03-23T12:51:52.372Z,9.32
2019-03-23T12:54:22.010Z,9.33
2019-03-23T12:56:51.748Z,9.40
2019-03-23T12:59:21.403Z,9.28
2019-03-23T13:01:51.057Z,9.04
2019-03-23T13:04:20.823Z,9.10
2019-03-23T13:06:50.539Z,9.15
2019-03-23T13:09:20.178Z,9.50
2019-03-23T13:11:50.312Z,9.53
2019-03-23T13:14:20.032Z,9.36
2019-03-23T13:16:49.656Z,9.16
2019-03-23T13:19:19.361Z,9.18
2019-03-23T13:21:49.061Z,9.37
2019-03-23T13:24:18.748Z,9.54
2019-03-23T13:26:48.464Z,9.43
2019-03-23T13:29:18.091Z,9.19
2019-03-23T13:31:47.751Z,9.42
2019-03-23T13:34:17.389Z,9.78
2019-03-23T13:36:47.247Z,9.56
2019-03-23T13:39:16.899Z,9.27
2019-03-23T13:41:50.120Z,9.34
2019-03-23T13:44:20.051Z,9.34
2019-03-23T13:46:49.680Z,9.43
2019-03-23T13:49:19.367Z,9.43
2019-03-23T13:51:49.069Z,9.70
2019-03-23T13:54:18.764Z,9.49
2019-03-23T13:56:48.459Z,9.17
2019-03-23T13:59:18.110Z,9.38
2019-03-23T14:01:47.750Z,9.31
2019-03-23T14:04:17.714Z,9.57
2019-03-23T14:06:47.359Z,9.43
2019-03-23T14:09:17.001Z,9.63
2019-03-23T14:11:54.653Z,9.57
2019-03-23T14:14:18.088Z,9.52
2019-03-23T14:16:47.721Z,9.92
2019-03-23T14:19:17.397Z,9.96
2019-03-23T14:21:47.070Z,9.67
2019-03-23T14:24:16.767Z,9.82
2019-03-23T14:26:46.392Z,9.81
2019-03-23T14:29:16.056Z,10.20
2019-03-23T14:31:45.955Z,9.44
2019-03-23T14:34:15.703Z,9.12
2019-03-23T14:36:45.510Z,9.12
2019-03-23T14:39:15.187Z,9.12
2019-03-23T14:41:44.853Z,9.37
2019-03-23T14:44:14.565Z,9.50
2019-03-23T14:46:47.065Z,9.61
2019-03-23T14:49:16.737Z,9.53
2019-03-23T14:51:46.745Z,9.42
2019-03-23T14:54:16.416Z,9.26
2019-03-23T14:56:46.050Z,9.49
2019-03-23T14:59:15.708Z,9.54
2019-03-23T15:01:45.272Z,9.54
2019-03-23T15:04:14.926Z,9.44
2019-03-23T15:06:45.906Z,9.33
2019-03-23T15:09:15.579Z,9.48
2019-03-23T15:11:45.211Z,9.75
2019-03-23T15:14:14.865Z,9.75
2019-03-23T15:16:44.503Z,9.98
2019-03-23T15:19:15.626Z,10.01
2019-03-23T15:21:45.758Z,9.72
2019-03-23T15:24:15.804Z,9.64
2019-03-23T15:26:45.679Z,9.67
2019-03-23T15:29:15.616Z,9.69
2019-03-23T15:31:45.364Z,9.93
2019-03-23T15:34:15.263Z,10.02
2019-03-23T15:36:45.614Z,9.94
2019-03-23T15:39:15.429Z,10.00
2019-03-23T15:41:45.742Z,9.91
2019-03-23T15:44:15.763Z,10.03
2019-03-23T15:46:45.445Z,10.05
2019-03-23T15:49:15.204Z,10.10
2019-03-23T15:51:45.017Z,10.19
2019-03-23T15:54:14.699Z,10.28
2019-03-23T15:56:44.351Z,10.28
2019-03-23T15:59:14.064Z,10.40
2019-03-23T16:01:43.735Z,10.24
2019-03-23T16:04:15.060Z,10.23
2019-03-23T16:06:44.700Z,10.11
2019-03-23T16:09:14.471Z,10.06
2019-03-23T16:11:44.135Z,10.05
2019-03-23T16:14:13.913Z,9.98
2019-03-23T16:16:43.850Z,9.93
2019-03-23T16:19:13.857Z,10.03
2019-03-23T16:21:43.635Z,10.06
2019-03-23T16:24:13.401Z,10.06
2019-03-23T16:26:43.035Z,9.90
2019-03-23T16:29:12.691Z,9.92
2019-03-23T16:31:42.762Z,9.94
2019-03-23T16:34:12.420Z,9.85
2019-03-23T16:36:42.190Z,9.80
2019-03-23T16:39:11.845Z,9.71
2019-03-23T16:41:41.541Z,9.62
2019-03-23T16:44:11.209Z,9.76
2019-03-23T16:46:40.840Z,9.71
2019-03-23T16:49:10.892Z,9.69
2019-03-23T16:51:40.645Z,9.77
2019-03-23T16:54:10.314Z,9.78
2019-03-23T16:56:39.938Z,9.59
2019-03-23T16:59:09.599Z,9.50
2019-03-23T17:01:39.446Z,9.56
2019-03-23T17:04:09.111Z,9.49
2019-03-23T17:06:46.236Z,9.53
2019-03-23T17:09:10.324Z,9.53
2019-03-23T17:11:39.982Z,9.43
2019-03-23T17:14:09.812Z,9.42
2019-03-23T17:16:39.514Z,9.31
2019-03-23T17:19:09.327Z,9.30
2019-03-23T17:21:39.023Z,9.32
2019-03-23T17:24:08.730Z,9.32
2019-03-23T17:26:38.441Z,9.24
2019-03-23T17:29:08.234Z,9.20
2019-03-23T17:31:38.100Z,9.21
2019-03-23T17:34:07.828Z,9.10
2019-03-23T17:36:37.641Z,9.05
2019-03-23T17:39:07.757Z,8.97
2019-03-23T17:41:37.477Z,9.06
2019-03-23T17:44:07.132Z,9.10
2019-03-23T17:46:36.951Z,9.10
2019-03-23T17:49:06.728Z,9.03
2019-03-23T17:51:36.489Z,9.01
2019-03-23T17:54:06.403Z,9.15
2019-03-23T17:56:36.232Z,9.11
2019-03-23T17:59:06.081Z,8.98
2019-03-23T18:01:51.887Z,8.79
2019-03-23T18:04:22.343Z,8.79
2019-03-23T18:06:52.011Z,8.81
2019-03-23T18:09:22.083Z,8.88
2019-03-23T18:11:51.734Z,8.84
2019-03-23T18:14:22.185Z,8.87
2019-03-23T18:16:51.966Z,8.99
2019-03-23T18:19:22.008Z,9.00
2019-03-23T18:21:52.005Z,8.87
2019-03-23T18:24:21.770Z,8.71
2019-03-23T18:26:51.762Z,8.50
2019-03-23T18:29:21.741Z,8.63
2019-03-23T18:31:51.402Z,8.63
2019-03-23T18:34:21.036Z,8.72
2019-03-23T18:36:51.599Z,8.62
2019-03-23T18:39:21.308Z,8.51
2019-03-23T18:41:51.004Z,8.50
2019-03-23T18:44:20.645Z,8.66
2019-03-23T18:46:50.356Z,8.87
2019-03-23T18:49:19.979Z,8.87
2019-03-23T18:51:49.640Z,8.94
2019-03-23T18:54:19.267Z,8.97
2019-03-23T18:56:48.930Z,8.84
2019-03-23T18:59:18.673Z,8.99
2019-03-23T19:01:48.458Z,9.09
2019-03-23T19:04:18.193Z,9.02
2019-03-23T19:06:48.248Z,8.99
2019-03-23T19:09:17.918Z,9.09
2019-03-23T19:11:47.518Z,9.13
2019-03-23T19:14:17.238Z,9.07
2019-03-23T19:16:46.945Z,9.08
2019-03-23T19:19:16.581Z,9.11
2019-03-23T19:21:46.356Z,9.20
2019-03-23T19:24:16.004Z,9.31
2019-03-23T19:26:45.777Z,9.18
2019-03-23T19:29:15.527Z,9.26
2019-03-23T19:31:45.197Z,9.19
2019-03-23T19:34:14.835Z,9.29
2019-03-23T19:36:44.496Z,9.29
2019-03-23T19:39:14.558Z,9.25
2019-03-23T19:41:44.364Z,9.18
2019-03-23T19:44:13.982Z,9.28
2019-03-23T19:46:43.709Z,9.25
2019-03-23T19:49:13.399Z,9.31
2019-03-23T19:51:43.148Z,9.31
2019-03-23T19:54:12.828Z,9.40
2019-03-23T19:56:42.503Z,9.36
2019-03-23T19:59:12.170Z,9.39
2019-03-23T20:01:41.999Z,9.22
2019-03-23T20:04:11.664Z,9.23
2019-03-23T20:06:41.349Z,9.20
2019-03-23T20:09:11.360Z,9.19
2019-03-23T20:11:41.043Z,9.10
2019-03-23T20:14:10.667Z,9.28
2019-03-23T20:16:40.345Z,9.14
2019-03-23T20:19:10.315Z,9.32
2019-03-23T20:21:40.409Z,9.29
2019-03-23T20:24:10.034Z,9.18
2019-03-23T20:26:39.723Z,9.14
2019-03-23T20:29:09.398Z,9.10
2019-03-23T20:31:39.644Z,9.16
2019-03-23T20:34:09.314Z,9.12
2019-03-23T20:36:38.985Z,9.24
2019-03-23T20:39:12.047Z,9.04
2019-03-23T20:41:41.772Z,9.09
2019-03-23T20:44:12.232Z,9.12
2019-03-23T20:46:41.916Z,9.03
2019-03-23T20:49:11.660Z,9.02
2019-03-23T20:51:43.235Z,9.04
2019-03-23T20:54:13.764Z,9.03
2019-03-23T20:56:43.549Z,9.02
2019-03-23T20:59:13.194Z,8.94
2019-03-23T21:01:44.687Z,8.96
2019-03-23T21:04:14.387Z,8.91
2019-03-23T21:06:44.396Z,8.85
2019-03-23T21:09:14.046Z,8.85
2019-03-23T21:11:43.708Z,8.78
2019-03-23T21:14:20.124Z,8.89
2019-03-23T21:16:45.363Z,8.75
2019-03-23T21:19:15.011Z,8.73
2019-03-23T21:21:44.661Z,8.86
2019-03-23T21:24:14.338Z,8.85
2019-03-23T21:26:47.079Z,8.85
2019-03-23T21:29:16.717Z,8.71
2019-03-23T21:31:46.491Z,8.70
2019-03-23T21:34:16.321Z,8.68
2019-03-23T21:36:46.065Z,8.79
2019-03-23T21:39:15.860Z,8.73
2019-03-23T21:41:45.581Z,8.75
2019-03-23T21:44:15.216Z,8.85
2019-03-23T21:46:44.880Z,8.72
2019-03-23T21:49:14.517Z,8.72
2019-03-23T21:51:44.501Z,8.51
2019-03-23T21:54:14.387Z,8.61
2019-03-23T21:56:44.079Z,8.56
2019-03-23T21:59:19.328Z,8.53
2019-03-23T22:01:49.269Z,8.54
2019-03-23T22:04:18.896Z,8.51
2019-03-23T22:06:48.558Z,8.52
2019-03-23T22:09:18.195Z,8.48
2019-03-23T22:11:47.897Z,8.55
2019-03-23T22:14:17.556Z,8.55
2019-03-23T22:16:47.573Z,8.33
2019-03-23T22:19:17.278Z,8.33
2019-03-23T22:21:46.954Z,8.31
2019-03-23T22:24:16.637Z,8.39
2019-03-23T22:26:46.336Z,8.39
2019-03-23T22:29:15.998Z,8.27
2019-03-23T22:31:45.663Z,8.32
2019-03-23T22:34:15.385Z,8.11
2019-03-23T22:36:45.046Z,8.21
2019-03-23T22:39:14.710Z,8.14
2019-03-23T22:41:44.445Z,8.11
2019-03-23T22:44:14.120Z,8.15
2019-03-23T22:46:43.759Z,8.08
2019-03-23T22:49:13.447Z,8.14
2019-03-23T22:51:43.004Z,8.14
2019-03-23T22:54:12.683Z,8.04
2019-03-23T22:56:42.321Z,8.04
2019-03-23T22:59:11.990Z,8.02
2019-03-23T23:01:41.989Z,7.92
2019-03-23T23:04:11.657Z,7.85
2019-03-23T23:06:41.286Z,7.89
2019-03-23T23:09:11.461Z,7.89
2019-03-23T23:11:41.171Z,7.95
2019-03-23T23:14:10.852Z,7.88
2019-03-23T23:16:40.553Z,7.82
2019-03-23T23:19:10.219Z,7.80
2019-03-23T23:21:39.897Z,7.94
2019-03-23T23:24:09.574Z,7.94
2019-03-23T23:26:39.599Z,7.96
2019-03-23T23:29:09.262Z,7.89
2019-03-23T23:31:38.937Z,7.96
2019-03-23T23:34:08.593Z,7.82
2019-03-23T23:36:38.244Z,7.91
2019-03-23T23:39:08.465Z,7.82
2019-03-23T23:41:38.083Z,7.96
2019-03-23T23:44:07.763Z,7.84
2019-03-23T23:46:37.402Z,7.98
2019-03-23T23:49:07.078Z,7.77
2019-03-23T23:51:37.403Z,7.80
2019-03-23T23:54:07.083Z,7.91
2019-03-23T23:56:36.740Z,7.97
2019-03-23T23:59:06.668Z,8.04
